Terminal Aerodrome Forecast
Issued by NWS

Current Version | Previous Version | Text Only | Print | Product List | Glossary Off
Versions: 1 2 3 4 5 6 7 8 9 10 11 12 13 14 15 16 17 18 19 20 21 22

000
FTUS41 KPBZ 141100
TAFHLG
TAF
KHLG 141120Z 1412/1512 19012G22KT P6SM BKN200
     FM141500 21014G28KT P6SM VCSH BKN080
     FM141900 21016G34KT 4SM -SHRA BKN035
     FM150300 VRB05KT 3SM -RA OVC012
     FM150900 29012KT 3SM -SHRA OVC010=

USA.gov is the U.S. government's official web portal to all federal, state and local government web resources and services.